Time;durP1;ratioP1;P1;durP2;ratioP2;P2;SDS_P1;SDS_P2;PMS_P1;PMS_P2;Temp;Humidity;BMP_temperature;BMP_pressure;BME280_temperature;BME280_humidity;BME280_pressure;Samples;Min_cycle;Max_cycle;Signal;HPM_P1;HPM_P2
2023/09/16 00:00:59;;;;;;;9.18;6.53;;;;;14.50;100847.00;;;;9991565;29;20887;-81
2023/09/16 00:06:06;;;;;;;8.43;6.95;;;;;14.40;100856.00;;;;9995102;29;20224;-81
2023/09/16 00:11:10;;;;;;;7.07;6.22;;;;;14.40;100844.00;;;;9996684;29;20232;-79
2023/09/16 00:16:15;;;;;;;9.97;6.87;;;;;14.40;100850.00;;;;9978817;29;20248;-80
2023/09/16 00:21:17;;;;;;;9.30;7.67;;;;;14.40;100839.00;;;;9979687;29;20346;-80
2023/09/16 00:26:19;;;;;;;10.07;7.23;;;;;14.50;100844.00;;;;9981678;29;20224;-80
2023/09/16 00:31:22;;;;;;;11.55;6.25;;;;;14.40;100843.00;;;;9996808;29;21694;-79
2023/09/16 00:36:24;;;;;;;7.17;6.03;;;;;14.30;100831.00;;;;9998186;29;21001;-80
2023/09/16 00:41:25;;;;;;;9.10;6.43;;;;;14.20;100826.00;;;;10000487;29;20283;-81
2023/09/16 00:46:27;;;;;;;9.27;7.90;;;;;14.10;100822.00;;;;10032965;29;20224;-78
2023/09/16 00:51:28;;;;;;;9.07;7.00;;;;;14.10;100826.00;;;;10039321;29;20232;-79
2023/09/16 00:56:30;;;;;;;9.38;6.93;;;;;14.00;100823.00;;;;10059853;29;20220;-78
2023/09/16 01:01:31;;;;;;;10.30;6.83;;;;;13.90;100822.00;;;;10043535;29;20591;-80
2023/09/16 01:06:33;;;;;;;9.47;6.67;;;;;13.90;100823.00;;;;9992139;29;20307;-80
2023/09/16 01:11:35;;;;;;;7.70;6.67;;;;;13.80;100811.00;;;;10009562;29;20232;-80
2023/09/16 01:16:43;;;;;;;7.97;7.10;;;;;13.80;100813.00;;;;9975987;29;20251;-79
2023/09/16 01:21:45;;;;;;;10.80;6.40;;;;;13.70;100807.00;;;;9992459;29;20348;-80
2023/09/16 01:26:47;;;;;;;10.30;7.73;;;;;13.70;100813.00;;;;9963508;29;20216;-80
2023/09/16 01:31:49;;;;;;;9.30;6.80;;;;;13.60;100813.00;;;;9996957;29;20924;-78
2023/09/16 01:36:55;;;;;;;9.03;6.83;;;;;13.60;100810.00;;;;10015902;29;21732;-81
2023/09/16 01:41:59;;;;;;;11.83;6.93;;;;;13.60;100800.00;;;;9979398;29;20220;-81
2023/09/16 01:47:00;;;;;;;8.97;7.23;;;;;13.50;100803.00;;;;10006360;29;20236;-80
2023/09/16 01:52:02;;;;;;;8.13;6.83;;;;;13.50;100800.00;;;;9982023;29;20836;-80
2023/09/16 01:57:04;;;;;;;12.43;7.70;;;;;13.50;100808.00;;;;9989413;29;20303;-80
2023/09/16 02:02:05;;;;;;;9.83;8.17;;;;;13.40;100812.00;;;;9974255;29;20228;-80
2023/09/16 02:07:07;;;;;;;12.43;8.53;;;;;13.40;100801.00;;;;10006485;29;21321;-81
2023/09/16 02:12:08;;;;;;;10.97;8.77;;;;;13.40;100801.00;;;;9994885;29;20243;-82
2023/09/16 02:17:11;;;;;;;14.23;9.00;;;;;13.30;100795.00;;;;9978062;29;20216;-81
2023/09/16 02:22:14;;;;;;;10.77;8.93;;;;;13.30;100796.00;;;;10021952;29;20263;-77
2023/09/16 02:27:17;;;;;;;11.77;7.93;;;;;13.20;100796.00;;;;10023650;29;20247;-78
2023/09/16 02:32:18;;;;;;;11.40;7.63;;;;;13.20;100798.00;;;;10042686;29;20212;-76
2023/09/16 02:37:20;;;;;;;9.50;7.63;;;;;13.10;100793.00;;;;10010868;29;20212;-78
2023/09/16 02:42:22;;;;;;;11.33;9.23;;;;;13.10;100796.00;;;;10025346;29;20216;-79
2023/09/16 02:47:24;;;;;;;11.10;8.40;;;;;13.00;100804.00;;;;10006616;29;20279;-79
2023/09/16 02:52:25;;;;;;;11.60;8.30;;;;;13.00;100793.00;;;;10018768;29;21274;-79
2023/09/16 02:57:26;;;;;;;9.37;8.23;;;;;13.00;100797.00;;;;10011359;29;21066;-83
2023/09/16 03:02:28;;;;;;;10.17;8.30;;;;;13.00;100796.00;;;;10001383;29;20216;-80
2023/09/16 03:07:29;;;;;;;10.03;7.77;;;;;12.90;100801.00;;;;10015461;29;20330;-79
2023/09/16 03:12:31;;;;;;;9.87;7.60;;;;;12.80;100787.00;;;;10008319;29;20541;-79
2023/09/16 03:17:33;;;;;;;12.20;8.07;;;;;12.80;100778.00;;;;10025019;29;20219;-81
2023/09/16 03:22:35;;;;;;;10.00;7.60;;;;;12.70;100775.00;;;;9987284;29;20231;-78
2023/09/16 03:27:37;;;;;;;10.60;8.43;;;;;12.70;100765.00;;;;10016763;29;20220;-78
2023/09/16 03:32:39;;;;;;;11.77;8.47;;;;;12.70;100774.00;;;;10004351;29;20215;-79
2023/09/16 03:37:41;;;;;;;12.00;8.63;;;;;12.70;100769.00;;;;9988014;29;20224;-78
2023/09/16 03:42:43;;;;;;;12.90;8.30;;;;;12.60;100769.00;;;;10003739;29;21091;-79
2023/09/16 03:47:45;;;;;;;11.23;8.57;;;;;12.50;100763.00;;;;10004032;29;20768;-78
2023/09/16 03:52:48;;;;;;;13.20;8.77;;;;;12.50;100760.00;;;;10001688;29;20711;-78
2023/09/16 03:57:50;;;;;;;12.90;8.83;;;;;12.50;100755.00;;;;10003226;29;20669;-79
2023/09/16 04:02:52;;;;;;;9.50;8.43;;;;;12.50;100745.00;;;;10001482;29;20220;-78
2023/09/16 04:07:54;;;;;;;11.13;7.90;;;;;12.40;100743.00;;;;9987838;29;20232;-78
2023/09/16 04:12:56;;;;;;;13.07;7.80;;;;;12.40;100745.00;;;;9988180;29;20223;-79
2023/09/16 04:17:57;;;;;;;10.20;9.10;;;;;12.30;100736.00;;;;9985700;29;20564;-78
2023/09/16 04:22:58;;;;;;;11.80;7.93;;;;;12.20;100750.00;;;;9998083;29;20809;-79
2023/09/16 04:28:03;;;;;;;10.37;8.57;;;;;12.20;100745.00;;;;9981443;29;20350;-79
2023/09/16 04:33:05;;;;;;;12.33;10.07;;;;;12.20;100749.00;;;;9998077;29;20228;-78
2023/09/16 04:38:07;;;;;;;14.73;9.43;;;;;12.20;100740.00;;;;9966454;29;20218;-79
2023/09/16 04:43:08;;;;;;;12.20;9.20;;;;;12.20;100741.00;;;;9979123;29;20227;-77
2023/09/16 04:48:13;;;;;;;11.63;9.03;;;;;12.20;100735.00;;;;9996317;29;20232;-78
2023/09/16 04:53:16;;;;;;;11.50;8.93;;;;;12.10;100741.00;;;;9995193;29;20744;-78
2023/09/16 04:58:19;;;;;;;9.63;8.50;;;;;12.10;100739.00;;;;9965738;29;20307;-78
2023/09/16 05:03:21;;;;;;;10.97;8.90;;;;;12.10;100736.00;;;;9995683;29;20280;-78
2023/09/16 05:08:22;;;;;;;12.37;9.33;;;;;12.10;100738.00;;;;9979543;29;20236;-78
2023/09/16 05:13:26;;;;;;;12.27;10.57;;;;;12.10;100737.00;;;;9964588;29;20229;-79
2023/09/16 05:18:27;;;;;;;14.60;11.00;;;;;12.10;100735.00;;;;9978946;29;20350;-79
2023/09/16 05:23:30;;;;;;;13.43;11.07;;;;;12.20;100729.00;;;;9981137;29;20227;-79
2023/09/16 05:28:32;;;;;;;16.30;12.53;;;;;12.30;100726.00;;;;9965663;29;20263;-79
2023/09/16 05:33:37;;;;;;;18.57;13.23;;;;;12.30;100737.00;;;;9979592;29;20923;-79
2023/09/16 05:38:38;;;;;;;18.40;15.43;;;;;12.40;100731.00;;;;9963986;29;20383;-78
2023/09/16 05:43:40;;;;;;;17.80;14.60;;;;;12.50;100729.00;;;;9992031;29;20265;-77
2023/09/16 05:48:42;;;;;;;14.20;12.63;;;;;12.60;100732.00;;;;9977953;29;20232;-79
2023/09/16 05:53:45;;;;;;;18.63;14.97;;;;;12.80;100719.00;;;;9978999;29;20362;-79
2023/09/16 05:58:47;;;;;;;23.63;15.47;;;;;13.00;100724.00;;;;9991560;29;20248;-78
2023/09/16 06:03:52;;;;;;;19.40;17.17;;;;;13.30;100715.00;;;;9962855;29;20311;-78
2023/09/16 06:08:54;;;;;;;19.23;16.27;;;;;13.40;100732.00;;;;9979199;29;20259;-78
2023/09/16 06:13:56;;;;;;;21.97;16.87;;;;;13.50;100731.00;;;;9962891;29;22188;-78
2023/09/16 06:18:57;;;;;;;22.80;19.40;;;;;13.80;100738.00;;;;9978491;29;20352;-80
2023/09/16 06:23:59;;;;;;;24.43;20.50;;;;;14.20;100746.00;;;;9974810;29;20350;-78
2023/09/16 06:29:01;;;;;;;23.20;20.83;;;;;14.50;100739.00;;;;9976384;29;20962;-78
2023/09/16 06:34:02;;;;;;;25.40;20.67;;;;;14.70;100748.00;;;;9972093;29;20298;-77
2023/09/16 06:39:07;;;;;;;22.97;19.80;;;;;15.10;100751.00;;;;9990012;29;20224;-77
2023/09/16 06:44:08;;;;;;;22.33;18.55;;;;;15.30;100749.00;;;;9974242;29;21804;-79
2023/09/16 06:49:12;;;;;;;18.63;15.93;;;;;15.40;100756.00;;;;9988204;29;20363;-78
2023/09/16 06:54:14;;;;;;;18.42;14.88;;;;;15.50;100762.00;;;;9981561;29;20243;-78
2023/09/16 06:59:15;;;;;;;18.50;15.70;;;;;15.60;100765.00;;;;9977405;29;20228;-80
2023/09/16 07:04:17;;;;;;;18.20;15.15;;;;;15.70;100768.00;;;;10010712;29;20220;-78
2023/09/16 07:09:19;;;;;;;19.98;15.40;;;;;15.90;100759.00;;;;10012787;29;20299;-79
2023/09/16 07:14:20;;;;;;;17.55;15.75;;;;;16.20;100764.00;;;;9991854;29;21866;-79
2023/09/16 07:19:22;;;;;;;20.00;16.30;;;;;16.40;100755.00;;;;9983392;29;20606;-79
2023/09/16 07:24:23;;;;;;;19.65;15.77;;;;;16.80;100762.00;;;;9966842;29;20259;-79
2023/09/16 07:29:24;;;;;;;20.13;16.30;;;;;17.10;100761.00;;;;9981723;29;20239;-80
2023/09/16 07:34:26;;;;;;;17.17;15.35;;;;;17.40;100762.00;;;;9982963;29;20230;-78
2023/09/16 07:39:27;;;;;;;21.95;15.93;;;;;17.70;100768.00;;;;9967338;29;20218;-78
2023/09/16 07:44:29;;;;;;;15.27;13.75;;;;;17.90;100765.00;;;;9981612;29;20873;-79
2023/09/16 07:49:30;;;;;;;19.67;15.32;;;;;18.30;100763.00;;;;9998534;29;20236;-79
2023/09/16 07:54:31;;;;;;;13.82;12.18;;;;;18.80;100772.00;;;;10002388;29;20255;-79
2023/09/16 07:59:33;;;;;;;13.88;12.48;;;;;19.10;100782.00;;;;9974498;29;20243;-80
2023/09/16 08:04:38;;;;;;;14.00;11.90;;;;;19.50;100781.00;;;;9974859;29;20471;-78
2023/09/16 08:09:39;;;;;;;11.52;10.32;;;;;19.70;100784.00;;;;10011103;29;20232;-80
2023/09/16 08:14:41;;;;;;;15.65;10.88;;;;;19.90;100790.00;;;;9989230;29;20266;-81
2023/09/16 08:19:42;;;;;;;13.63;10.85;;;;;20.40;100795.00;;;;10010277;29;20230;-79
2023/09/16 08:24:43;;;;;;;10.68;9.57;;;;;20.90;100799.00;;;;10010917;29;20920;-80
2023/09/16 08:29:46;;;;;;;10.52;8.20;;;;;21.00;100802.00;;;;9992932;29;20247;-79
2023/09/16 08:34:47;;;;;;;11.00;8.38;;;;;21.70;100812.00;;;;9962796;29;20295;-81
2023/09/16 08:39:48;;;;;;;9.05;7.70;;;;;22.20;100812.00;;;;9990704;29;20252;-80
2023/09/16 08:44:52;;;;;;;9.40;7.88;;;;;22.40;100802.00;;;;9990681;29;20246;-79
2023/09/16 08:50:01;;;;;;;9.35;7.35;;;;;22.70;100816.00;;;;10004498;29;20490;-81
2023/09/16 08:55:07;;;;;;;9.43;8.35;;;;;23.20;100825.00;;;;9971224;29;20213;-80
2023/09/16 09:00:09;;;;;;;8.02;7.25;;;;;23.30;100823.00;;;;9971806;29;20223;-80
2023/09/16 09:05:11;;;;;;;9.05;6.60;;;;;24.00;100828.00;;;;10008922;29;20220;-81
2023/09/16 09:10:12;;;;;;;8.82;6.55;;;;;24.40;100835.00;;;;9990734;29;20239;-79
2023/09/16 09:15:15;;;;;;;9.15;6.15;;;;;24.10;100830.00;;;;9989733;29;20232;-81
2023/09/16 09:20:25;;;;;;;10.30;6.35;;;;;24.50;100839.00;;;;10012676;29;20220;-83
2023/09/16 09:25:27;;;;;;;7.97;5.93;;;;;25.10;100836.00;;;;9996434;29;20224;-80
2023/09/16 09:30:29;;;;;;;8.63;6.05;;;;;25.50;100829.00;;;;9995455;29;20904;-77
2023/09/16 09:35:31;;;;;;;9.05;5.75;;;;;26.10;100844.00;;;;9993788;29;20270;-82
2023/09/16 09:40:32;;;;;;;6.65;5.50;;;;;26.40;100843.00;;;;9984587;29;20278;-84
2023/09/16 09:45:40;;;;;;;8.23;4.95;;;;;26.50;100831.00;;;;10010599;29;20216;-81
2023/09/16 09:50:41;;;;;;;8.73;5.35;;;;;26.70;100843.00;;;;10088613;29;20235;-85
2023/09/16 09:55:43;;;;;;;5.78;5.13;;;;;26.70;100838.00;;;;10063590;29;20208;-86
2023/09/16 10:00:50;;;;;;;8.43;5.10;;;;;26.50;100825.00;;;;10059885;29;20627;-87
2023/09/16 10:05:51;;;;;;;8.60;5.32;;;;;26.60;100828.00;;;;10069502;29;20630;-82
2023/09/16 10:10:54;;;;;;;12.32;5.47;;;;;26.80;100837.00;;;;10108398;29;20511;-81
2023/09/16 10:15:55;;;;;;;6.57;5.10;;;;;27.20;100821.00;;;;10083821;29;20276;-85
2023/09/16 10:20:57;;;;;;;6.00;5.40;;;;;27.50;100822.00;;;;10056669;29;20391;-85
2023/09/16 10:25:59;;;;;;;6.63;5.57;;;;;27.50;100804.00;;;;10079732;29;20219;-82
2023/09/16 10:31:00;;;;;;;6.63;5.28;;;;;27.80;100793.00;;;;10062382;29;20776;-78
2023/09/16 10:36:04;;;;;;;6.28;5.40;;;;;28.10;100802.00;;;;10076039;29;20216;-79
2023/09/16 10:41:08;;;;;;;8.15;5.78;;;;;28.40;100803.00;;;;10052803;29;20219;-78
2023/09/16 10:46:09;;;;;;;9.77;4.93;;;;;28.30;100798.00;;;;10085661;29;20217;-79
2023/09/16 10:51:21;;;;;;;7.25;4.50;;;;;28.60;100797.00;;;;10075409;29;20234;-78
2023/09/16 10:56:29;;;;;;;7.25;4.18;;;;;28.80;100788.00;;;;10046523;29;20747;-79
2023/09/16 11:01:34;;;;;;;5.50;4.75;;;;;28.90;100789.00;;;;10077970;29;20556;-79
2023/09/16 11:06:36;;;;;;;5.30;4.40;;;;;28.90;100779.00;;;;10070797;29;20211;-79
2023/09/16 11:11:38;;;;;;;4.70;4.15;;;;;29.20;100775.00;;;;10069844;29;20679;-80
2023/09/16 11:16:44;;;;;;;5.53;4.50;;;;;29.30;100773.00;;;;10065503;29;20223;-79
2023/09/16 11:21:45;;;;;;;4.50;4.10;;;;;29.10;100767.00;;;;10083729;29;20212;-80
2023/09/16 11:26:49;;;;;;;5.20;4.28;;;;;29.00;100768.00;;;;10071391;29;20303;-78
2023/09/16 11:31:50;;;;;;;4.85;3.90;;;;;29.00;100761.00;;;;10077145;29;20707;-79
2023/09/16 11:36:55;;;;;;;3.88;3.58;;;;;29.40;100762.00;;;;10069908;29;20217;-79
2023/09/16 11:41:56;;;;;;;4.10;3.70;;;;;30.10;100742.00;;;;10064637;29;20243;-80
2023/09/16 11:46:59;;;;;;;4.30;3.90;;;;;30.60;100731.00;;;;10082737;29;20295;-79
2023/09/16 11:52:01;;;;;;;4.25;3.85;;;;;30.80;100749.00;;;;10078000;29;20260;-80
2023/09/16 11:57:03;;;;;;;4.38;3.97;;;;;30.10;100738.00;;;;10056672;29;20281;-79
2023/09/16 12:02:06;;;;;;;6.30;3.97;;;;;30.50;100752.00;;;;10082167;29;20232;-81
2023/09/16 12:07:07;;;;;;;5.05;4.57;;;;;30.60;100744.00;;;;10073914;29;20846;-80
2023/09/16 12:12:09;;;;;;;7.22;4.30;;;;;30.70;100742.00;;;;10073156;29;20220;-80
2023/09/16 12:17:10;;;;;;;5.22;4.05;;;;;31.30;100746.00;;;;10082604;29;20273;-79
2023/09/16 12:22:12;;;;;;;5.95;4.32;;;;;31.60;100748.00;;;;10079737;29;20221;-78
2023/09/16 12:27:13;;;;;;;4.00;3.70;;;;;31.40;100739.00;;;;10079501;29;20539;-80
2023/09/16 12:32:17;;;;;;;5.22;4.38;;;;;30.60;100742.00;;;;10082749;29;20212;-80
2023/09/16 12:37:21;;;;;;;4.50;4.10;;;;;30.10;100746.00;;;;10063319;29;21095;-79
2023/09/16 12:42:23;;;;;;;4.30;3.83;;;;;29.70;100740.00;;;;10063500;29;20227;-80
2023/09/16 12:47:26;;;;;;;4.63;3.67;;;;;29.60;100751.00;;;;10079249;29;20240;-76
2023/09/16 12:52:27;;;;;;;4.82;4.32;;;;;29.20;100736.00;;;;10077282;29;20220;-78
2023/09/16 12:57:29;;;;;;;8.63;4.85;;;;;29.00;100732.00;;;;10075233;29;20206;-78
2023/09/16 13:02:35;;;;;;;8.45;4.65;;;;;28.70;100731.00;;;;10064254;29;20216;-79
2023/09/16 13:07:38;;;;;;;5.10;4.60;;;;;28.70;100727.00;;;;10070411;29;20212;-77
2023/09/16 13:12:42;;;;;;;7.70;4.82;;;;;28.80;100723.00;;;;10061576;29;20647;-78
2023/09/16 13:17:46;;;;;;;8.45;4.40;;;;;29.00;100722.00;;;;10078906;29;20271;-77
2023/09/16 13:22:55;;;;;;;6.35;4.80;;;;;29.20;100717.00;;;;10070476;29;20216;-78
2023/09/16 13:28:16;;;;;;;6.22;4.70;;;;;29.30;100710.00;;;;10070825;29;20216;-78
2023/09/16 13:33:17;;;;;;;5.10;4.60;;;;;29.30;100713.00;;;;10080024;29;20220;-78
2023/09/16 13:38:19;;;;;;;5.20;4.43;;;;;29.30;100716.00;;;;10068043;29;20666;-77
2023/09/16 13:43:20;;;;;;;5.72;4.50;;;;;29.30;100711.00;;;;10055447;29;20243;-79
2023/09/16 13:48:23;;;;;;;5.28;4.43;;;;;29.20;100713.00;;;;10071989;29;20224;-78
2023/09/16 13:53:25;;;;;;;4.72;4.05;;;;;28.90;100708.00;;;;10040674;29;20304;-78
2023/09/16 13:58:26;;;;;;;6.72;4.60;;;;;28.80;100714.00;;;;10080890;29;20324;-80
2023/09/16 14:03:28;;;;;;;7.68;4.55;;;;;28.90;100715.00;;;;10077841;29;20216;-79
2023/09/16 14:08:29;;;;;;;8.80;5.25;;;;;29.00;100711.00;;;;10065559;29;20207;-80
2023/09/16 14:13:30;;;;;;;7.05;5.40;;;;;28.90;100712.00;;;;10061217;29;20225;-79
2023/09/16 14:18:31;;;;;;;6.10;5.50;;;;;28.60;100706.00;;;;10063744;29;20232;-80
2023/09/16 14:23:33;;;;;;;6.40;5.28;;;;;28.30;100711.00;;;;10049316;29;20279;-81
2023/09/16 14:28:34;;;;;;;5.15;4.65;;;;;28.10;100704.00;;;;10078887;29;20280;-78
2023/09/16 14:33:35;;;;;;;5.13;4.60;;;;;27.90;100717.00;;;;10078908;29;20228;-81
2023/09/16 14:38:38;;;;;;;6.30;4.85;;;;;27.50;100717.00;;;;10069864;29;20236;-79
2023/09/16 14:43:40;;;;;;;5.72;4.93;;;;;27.00;100719.00;;;;10072028;29;20231;-79
2023/09/16 14:48:41;;;;;;;4.75;4.15;;;;;26.50;100702.00;;;;10048487;29;20216;-80
2023/09/16 14:53:42;;;;;;;7.65;4.13;;;;;25.90;100714.00;;;;10056182;29;20208;-80
2023/09/16 14:58:44;;;;;;;7.45;3.85;;;;;25.40;100710.00;;;;10073026;29;20231;-79
2023/09/16 15:03:49;;;;;;;5.68;3.88;;;;;25.10;100711.00;;;;10049741;29;20323;-79
2023/09/16 15:08:50;;;;;;;7.65;4.20;;;;;25.00;100717.00;;;;10051027;29;20215;-78
2023/09/16 15:13:52;;;;;;;6.60;3.55;;;;;24.90;100717.00;;;;10052953;29;20740;-76
2023/09/16 15:18:53;;;;;;;6.80;4.20;;;;;24.90;100713.00;;;;10069250;29;20287;-77
2023/09/16 15:23:55;;;;;;;13.27;4.28;;;;;24.90;100719.00;;;;10017626;29;20217;-78
2023/09/16 15:28:57;;;;;;;7.70;5.32;;;;;25.00;100725.00;;;;10022516;29;20270;-77
2023/09/16 15:33:59;;;;;;;7.85;4.50;;;;;24.80;100728.00;;;;10055001;29;20719;-79
2023/09/16 15:39:00;;;;;;;5.80;5.20;;;;;24.60;100723.00;;;;10049359;29;20252;-78
2023/09/16 15:44:02;;;;;;;6.15;5.55;;;;;24.60;100725.00;;;;10071629;29;20754;-78
2023/09/16 15:49:03;;;;;;;5.97;5.30;;;;;24.60;100730.00;;;;10035426;29;20295;-76
2023/09/16 15:54:05;;;;;;;7.63;6.05;;;;;24.50;100722.00;;;;10046227;29;20220;-77
2023/09/16 15:59:07;;;;;;;6.85;5.75;;;;;24.30;100729.00;;;;10057221;29;20233;-79
2023/09/16 16:04:08;;;;;;;7.65;6.35;;;;;24.10;100725.00;;;;10044932;29;20710;-77
2023/09/16 16:09:11;;;;;;;8.43;5.85;;;;;23.90;100740.00;;;;10071809;29;20484;-77
2023/09/16 16:14:13;;;;;;;8.23;6.07;;;;;23.70;100730.00;;;;10045537;29;20247;-78
2023/09/16 16:19:14;;;;;;;7.32;6.20;;;;;23.70;100724.00;;;;10068963;29;20232;-82
2023/09/16 16:24:16;;;;;;;9.90;7.10;;;;;23.70;100722.00;;;;10049822;29;20216;-85
2023/09/16 16:29:18;;;;;;;7.45;6.30;;;;;23.80;100722.00;;;;10078592;29;20224;-86
2023/09/16 16:34:19;;;;;;;9.23;7.00;;;;;23.80;100720.00;;;;10063067;29;20224;-83
2023/09/16 16:39:21;;;;;;;7.03;6.43;;;;;23.70;100729.00;;;;10072410;29;20649;-83
2023/09/16 16:44:22;;;;;;;8.90;6.90;;;;;23.60;100727.00;;;;10079405;29;20718;-83
2023/09/16 16:49:24;;;;;;;8.23;6.95;;;;;23.50;100729.00;;;;10042133;29;20223;-85
2023/09/16 16:54:25;;;;;;;7.50;6.75;;;;;23.30;100725.00;;;;10041709;29;20562;-84
2023/09/16 16:59:27;;;;;;;11.70;7.68;;;;;23.10;100725.00;;;;10064841;29;20421;-82
2023/09/16 17:04:28;;;;;;;10.82;7.38;;;;;23.00;100722.00;;;;10070840;29;20593;-78
2023/09/16 17:09:30;;;;;;;8.68;7.72;;;;;22.80;100726.00;;;;10036442;29;20280;-84
2023/09/16 17:14:31;;;;;;;11.07;7.30;;;;;22.70;100724.00;;;;10056947;29;20430;-84
2023/09/16 17:19:33;;;;;;;9.07;7.75;;;;;22.60;100728.00;;;;10049778;29;20301;-84
2023/09/16 17:24:34;;;;;;;9.93;7.82;;;;;22.50;100732.00;;;;10026630;29;20208;-85
2023/09/16 17:29:35;;;;;;;8.88;7.88;;;;;22.50;100731.00;;;;10082690;29;20276;-81
2023/09/16 17:34:37;;;;;;;10.05;7.63;;;;;22.40;100734.00;;;;10067836;29;20212;-83
2023/09/16 17:39:39;;;;;;;8.32;7.45;;;;;22.30;100742.00;;;;10080590;29;20300;-84
2023/09/16 17:44:40;;;;;;;9.13;7.25;;;;;22.30;100749.00;;;;10082256;29;20316;-82
2023/09/16 17:49:42;;;;;;;7.88;7.10;;;;;22.20;100755.00;;;;10079017;29;20212;-81
2023/09/16 17:54:44;;;;;;;8.50;7.20;;;;;22.20;100754.00;;;;10074112;29;20276;-81
2023/09/16 17:59:45;;;;;;;6.30;3.67;;;;;22.20;100767.00;;;;10081221;29;20258;-82
2023/09/16 18:04:46;;;;;;;6.22;3.30;;;;;21.90;100768.00;;;;10067483;29;20252;-81
2023/09/16 18:09:47;;;;;;;3.17;2.92;;;;;21.70;100770.00;;;;10111922;29;20220;-83
2023/09/16 18:14:49;;;;;;;8.55;3.72;;;;;21.50;100783.00;;;;10066103;29;20208;-82
2023/09/16 18:19:50;;;;;;;4.47;3.10;;;;;21.30;100781.00;;;;10110167;29;20262;-81
2023/09/16 18:24:52;;;;;;;3.58;2.80;;;;;21.20;100780.00;;;;10102017;29;20201;-85
2023/09/16 18:29:53;;;;;;;5.45;3.03;;;;;21.10;100778.00;;;;10095413;29;20227;-81
2023/09/16 18:34:55;;;;;;;3.08;2.45;;;;;21.10;100785.00;;;;10355090;23;20247;-80
2023/09/16 19:03:02;;;;;;;4.83;2.30;;;;;20.90;100812.00;;;;11762902;23;20469;31
2023/09/16 19:19:33;;;;;;;3.60;2.03;;;;;20.90;100819.00;;;;10843314;23;20368;-90
2023/09/16 19:24:36;;;;;;;4.88;2.10;;;;;20.90;100813.00;;;;10084386;29;20192;-89
2023/09/16 19:29:38;;;;;;;4.22;2.28;;;;;20.90;100806.00;;;;10068761;29;20208;-90
2023/09/16 19:34:41;;;;;;;3.50;2.60;;;;;20.90;100810.00;;;;10082875;29;20196;-90
2023/09/16 19:45:27;;;;;;;3.72;3.20;;;;;20.80;100811.00;;;;10719032;23;20259;-90
2023/09/16 19:50:31;;;;;;;4.95;2.35;;;;;20.70;100816.00;;;;10069925;29;20282;-90
2023/09/16 19:55:33;;;;;;;2.92;2.30;;;;;20.60;100820.00;;;;10101904;29;20231;-91
2023/09/16 20:00:34;;;;;;;4.45;2.83;;;;;20.50;100826.00;;;;10055568;29;20298;-89
2023/09/16 20:05:37;;;;;;;4.00;3.38;;;;;20.50;100828.00;;;;10052284;29;20239;-90
2023/09/16 20:10:38;;;;;;;5.60;3.80;;;;;20.50;100818.00;;;;10024146;29;20219;-90
2023/09/16 20:15:40;;;;;;;7.32;3.60;;;;;20.50;100815.00;;;;10036671;29;20208;-90
2023/09/16 20:20:41;;;;;;;7.30;3.28;;;;;20.40;100807.00;;;;10036244;29;20265;-91
2023/09/16 20:25:45;;;;;;;5.65;3.85;;;;;20.40;100811.00;;;;10035717;29;20241;-90
2023/09/16 20:30:46;;;;;;;5.60;3.90;;;;;20.40;100816.00;;;;9995471;29;20243;-90
2023/09/16 20:35:48;;;;;;;4.30;3.58;;;;;20.30;100816.00;;;;10031118;29;20222;-89
2023/09/16 20:40:49;;;;;;;9.45;3.63;;;;;20.30;100820.00;;;;10016374;29;20225;-89
2023/09/16 20:45:51;;;;;;;7.40;4.53;;;;;20.30;100823.00;;;;10061960;29;20208;-90
2023/09/16 20:50:52;;;;;;;6.10;4.10;;;;;20.30;100822.00;;;;10051387;23;20235;-79
2023/09/16 20:55:54;;;;;;;5.00;4.50;;;;;20.10;100819.00;;;;10109438;29;20208;-79
2023/09/16 21:00:55;;;;;;;8.38;4.93;;;;;20.00;100820.00;;;;10069652;29;20256;-79
2023/09/16 21:05:56;;;;;;;10.70;6.30;;;;;19.90;100829.00;;;;10098113;29;20213;-78
2023/09/16 21:10:58;;;;;;;10.68;5.28;;;;;19.90;100814.00;;;;10087015;29;20205;-77
2023/09/16 21:15:59;;;;;;;12.23;5.60;;;;;19.80;100811.00;;;;10087070;29;20240;-77
2023/09/16 21:21:00;;;;;;;6.22;5.63;;;;;19.70;100808.00;;;;10070798;29;20228;-79
2023/09/16 21:26:03;;;;;;;8.05;5.30;;;;;19.70;100798.00;;;;10094247;29;20577;-78
2023/09/16 21:31:04;;;;;;;10.15;6.97;;;;;19.70;100797.00;;;;10041749;29;20693;-78
2023/09/16 21:36:06;;;;;;;7.60;6.78;;;;;19.60;100782.00;;;;10091847;29;20228;-77
2023/09/16 21:41:07;;;;;;;6.07;5.25;;;;;19.70;100793.00;;;;10053367;29;20288;-79
2023/09/16 21:46:09;;;;;;;7.60;6.05;;;;;19.60;100786.00;;;;10068109;29;20211;-79
2023/09/16 21:51:10;;;;;;;8.88;5.40;;;;;19.60;100783.00;;;;10080702;29;20208;-78
2023/09/16 21:56:12;;;;;;;5.43;4.82;;;;;19.60;100768.00;;;;10063188;29;20320;-79
2023/09/16 22:01:14;;;;;;;8.57;6.20;;;;;19.60;100775.00;;;;10044319;29;20228;-79
2023/09/16 22:06:15;;;;;;;7.65;6.85;;;;;19.50;100774.00;;;;10031591;29;20692;-79
2023/09/16 22:11:16;;;;;;;13.38;7.93;;;;;19.60;100778.00;;;;10061592;29;20225;-83
2023/09/16 22:16:19;;;;;;;11.07;8.75;;;;;19.60;100771.00;;;;10061404;29;20417;-82
2023/09/16 22:21:20;;;;;;;11.15;9.45;;;;;19.60;100760.00;;;;10069698;29;20232;-79
2023/09/16 22:26:22;;;;;;;13.48;11.80;;;;;19.60;100769.00;;;;10054318;29;20261;-82
2023/09/16 22:31:23;;;;;;;14.20;10.23;;;;;19.60;100772.00;;;;10050147;29;20232;-81
2023/09/16 22:36:24;;;;;;;11.90;10.23;;;;;19.50;100777.00;;;;10043466;29;20689;-82
2023/09/16 22:41:26;;;;;;;15.95;11.88;;;;;19.50;100780.00;;;;10029458;29;20256;-81
2023/09/16 22:46:27;;;;;;;15.07;13.10;;;;;19.40;100782.00;;;;10013485;29;20212;-80
2023/09/16 22:51:30;;;;;;;16.02;13.43;;;;;19.40;100770.00;;;;10006253;29;20217;-81
2023/09/16 22:56:34;;;;;;;18.00;15.15;;;;;19.40;100761.00;;;;10025279;29;20216;-78
2023/09/16 23:01:35;;;;;;;18.10;15.32;;;;;19.30;100763.00;;;;10001348;29;20412;-78
2023/09/16 23:06:37;;;;;;;20.45;17.92;;;;;19.30;100754.00;;;;10057102;29;20213;-78
2023/09/16 23:11:38;;;;;;;23.25;20.75;;;;;19.30;100753.00;;;;10046554;29;20692;-78
2023/09/16 23:16:40;;;;;;;25.83;22.02;;;;;19.20;100757.00;;;;10033007;29;20228;-78
2023/09/16 23:21:42;;;;;;;30.05;25.45;;;;;19.20;100738.00;;;;10014140;29;20607;-78
2023/09/16 23:26:43;;;;;;;29.38;25.05;;;;;19.20;100728.00;;;;10024554;29;20696;-78
2023/09/16 23:31:45;;;;;;;32.53;27.25;;;;;19.10;100732.00;;;;10023500;29;20778;-78
2023/09/16 23:36:46;;;;;;;35.55;27.65;;;;;19.10;100735.00;;;;10053197;29;20225;-77
2023/09/16 23:41:47;;;;;;;32.20;27.08;;;;;19.10;100729.00;;;;10034145;29;20439;-77
2023/09/16 23:46:49;;;;;;;32.88;27.38;;;;;19.10;100726.00;;;;10066577;29;20223;-78
2023/09/16 23:51:50;;;;;;;32.78;28.00;;;;;19.10;100720.00;;;;10044675;29;20226;-78
2023/09/16 23:56:51;;;;;;;39.58;31.02;;;;;19.10;100722.00;;;;10038760;29;20215;-77
